Time;durP1;ratioP1;P1;durP2;ratioP2;P2;SDS_P1;SDS_P2;PMS_P1;PMS_P2;Temp;Humidity;BMP_temperature;BMP_pressure;BME280_temperature;BME280_humidity;BME280_pressure;Samples;Min_cycle;Max_cycle;Signal;HPM_P1;HPM_P2
2020/12/11 00:00:21;;;;;;;21.63;18.10;;;2.50;99.90;;;;;;5046378;28;20181;-65
2020/12/11 00:02:46;;;;;;;22.50;18.37;;;2.50;99.90;;;;;;5046730;28;20488;-64
2020/12/11 00:05:12;;;;;;;24.20;18.20;;;2.40;99.90;;;;;;5046510;28;20447;-65
2020/12/11 00:07:39;;;;;;;20.40;15.60;;;2.50;99.90;;;;;;5046595;28;20659;-65
2020/12/11 00:10:07;;;;;;;22.40;18.03;;;2.40;99.90;;;;;;5047252;28;20885;-64
2020/12/11 00:12:33;;;;;;;19.97;16.77;;;2.50;99.90;;;;;;5047390;28;20498;-64
2020/12/11 00:15:04;;;;;;;20.07;15.17;;;2.40;99.90;;;;;;5046562;28;21042;-64
2020/12/11 00:17:29;;;;;;;25.10;16.33;;;2.40;99.90;;;;;;5046895;28;20519;-64
2020/12/11 00:19:55;;;;;;;19.07;15.50;;;2.40;99.90;;;;;;5045885;28;20523;-64
2020/12/11 00:22:22;;;;;;;16.47;13.50;;;2.50;99.90;;;;;;5046830;28;20181;-65
2020/12/11 00:24:48;;;;;;;17.40;14.47;;;2.50;99.90;;;;;;5046593;28;20448;-65
2020/12/11 00:27:14;;;;;;;18.83;14.60;;;2.50;99.90;;;;;;5046460;28;20527;-65
2020/12/11 00:29:39;;;;;;;19.00;14.73;;;2.50;99.90;;;;;;5045319;28;20519;-65
2020/12/11 00:32:05;;;;;;;20.87;15.33;;;2.50;99.90;;;;;;5045983;28;20186;-65
2020/12/11 00:34:31;;;;;;;17.53;14.97;;;2.50;99.90;;;;;;5046496;28;20209;-64
2020/12/11 00:36:57;;;;;;;15.40;13.47;;;2.40;99.90;;;;;;5046443;28;20174;-64
2020/12/11 00:39:23;;;;;;;16.10;14.30;;;2.40;99.90;;;;;;5045640;28;20955;-64
2020/12/11 00:41:49;;;;;;;16.60;13.43;;;2.40;99.90;;;;;;5046142;28;20521;-63
2020/12/11 00:44:14;;;;;;;17.17;14.17;;;2.40;99.90;;;;;;5045805;28;20711;-64
2020/12/11 00:46:40;;;;;;;13.83;12.23;;;2.40;99.90;;;;;;5036936;28;20236;-64
2020/12/11 00:49:05;;;;;;;15.40;12.73;;;2.40;99.90;;;;;;5031764;28;20181;-64
2020/12/11 00:51:31;;;;;;;14.17;12.60;;;2.50;99.90;;;;;;5032542;28;20185;-64
2020/12/11 00:53:56;;;;;;;14.43;12.63;;;2.40;99.90;;;;;;5032487;28;20675;-64
2020/12/11 00:56:25;;;;;;;17.70;13.87;;;2.40;99.90;;;;;;5032578;28;20186;-64
2020/12/11 00:58:51;;;;;;;15.67;12.93;;;2.40;99.90;;;;;;5031579;28;20174;-64
2020/12/11 01:01:16;;;;;;;14.87;12.77;;;2.30;99.90;;;;;;5032449;28;20930;-64
2020/12/11 01:03:42;;;;;;;15.00;12.63;;;2.20;99.90;;;;;;5032568;28;20248;-63
2020/12/11 01:06:08;;;;;;;16.07;12.70;;;2.20;99.90;;;;;;5032662;28;20174;-64
2020/12/11 01:08:34;;;;;;;13.37;11.97;;;2.20;99.90;;;;;;5031701;28;20217;-64
2020/12/11 01:11:00;;;;;;;13.37;11.97;;;2.20;99.90;;;;;;5032742;28;20424;-63
2020/12/11 01:13:25;;;;;;;15.57;13.23;;;2.10;99.90;;;;;;5032352;28;20174;-64
2020/12/11 01:15:51;;;;;;;16.43;13.93;;;2.10;99.90;;;;;;5032210;28;20464;-64
2020/12/11 01:18:16;;;;;;;21.30;14.67;;;2.10;99.90;;;;;;5031114;28;20239;-64
2020/12/11 01:20:42;;;;;;;14.67;13.00;;;2.10;99.90;;;;;;5032252;28;20187;-64
2020/12/11 01:23:07;;;;;;;17.80;13.10;;;2.10;99.90;;;;;;5031655;28;20170;-63
2020/12/11 01:25:33;;;;;;;17.70;13.60;;;2.10;99.90;;;;;;5032474;28;20201;-64
2020/12/11 01:27:59;;;;;;;16.13;13.40;;;2.00;99.90;;;;;;5031472;28;20182;-64
2020/12/11 01:30:25;;;;;;;14.40;12.70;;;2.00;99.90;;;;;;5031658;28;20174;-63
2020/12/11 01:32:51;;;;;;;14.57;12.67;;;2.00;99.90;;;;;;5032134;28;20436;-64
2020/12/11 01:35:16;;;;;;;17.53;11.90;;;1.90;99.90;;;;;;5031431;28;20213;-64
2020/12/11 01:37:42;;;;;;;14.10;12.20;;;2.00;99.90;;;;;;5030892;28;20181;-64
2020/12/11 01:40:07;;;;;;;16.10;12.90;;;2.00;99.90;;;;;;5031707;28;20178;-64
2020/12/11 01:42:33;;;;;;;18.20;14.60;;;2.00;99.90;;;;;;5031939;28;20717;-64
2020/12/11 01:44:58;;;;;;;18.00;13.20;;;1.90;99.90;;;;;;5031522;28;20293;-66
2020/12/11 01:47:24;;;;;;;15.13;12.93;;;1.90;99.90;;;;;;5031818;28;20186;-64
2020/12/11 01:49:53;;;;;;;17.90;13.40;;;1.90;99.90;;;;;;5031269;28;20185;-64
2020/12/11 01:52:19;;;;;;;15.97;13.47;;;1.90;99.90;;;;;;5031964;28;20515;-64
2020/12/11 01:54:46;;;;;;;16.37;13.83;;;1.90;99.90;;;;;;5031596;28;20867;-64
2020/12/11 01:57:26;;;;;;;19.77;14.40;;;1.90;99.90;;;;;;5031457;28;20440;-64
2020/12/11 01:59:53;;;;;;;16.93;13.70;;;1.90;99.90;;;;;;5030593;28;20429;-64
2020/12/11 02:02:21;;;;;;;16.57;14.20;;;1.90;99.90;;;;;;5030888;28;20424;-64
2020/12/11 02:04:48;;;;;;;19.57;14.10;;;1.90;99.90;;;;;;5031224;28;20481;-64
2020/12/11 02:07:14;;;;;;;20.80;15.27;;;1.90;99.90;;;;;;5031343;28;20443;-64
2020/12/11 02:09:40;;;;;;;19.20;14.27;;;1.90;99.90;;;;;;5030253;28;20424;-64
2020/12/11 02:12:06;;;;;;;17.43;14.40;;;1.80;99.90;;;;;;5031078;28;20183;-64
2020/12/11 02:14:32;;;;;;;19.67;15.73;;;1.80;99.90;;;;;;5031199;28;20193;-64
2020/12/11 02:17:02;;;;;;;17.50;13.53;;;1.80;99.90;;;;;;5031186;28;20474;-64
2020/12/11 02:19:33;;;;;;;15.67;13.87;;;1.80;99.90;;;;;;5030306;28;20456;-64
2020/12/11 02:22:04;;;;;;;16.37;12.77;;;1.70;99.90;;;;;;5031545;28;20436;-64
2020/12/11 02:24:30;;;;;;;17.43;14.03;;;1.70;99.90;;;;;;5031119;28;20873;-64
2020/12/11 02:27:00;;;;;;;17.50;14.10;;;1.60;99.90;;;;;;5031054;28;20486;-64
2020/12/11 02:29:27;;;;;;;18.40;14.50;;;1.50;99.90;;;;;;5030269;28;20595;-64
2020/12/11 02:31:53;;;;;;;17.43;14.40;;;1.40;99.90;;;;;;5030985;28;20527;-64
2020/12/11 02:34:20;;;;;;;17.23;14.20;;;1.40;99.90;;;;;;5031368;28;20541;-64
2020/12/11 02:36:46;;;;;;;19.80;15.40;;;1.40;99.90;;;;;;5030974;28;20524;-64
2020/12/11 02:39:12;;;;;;;17.37;13.93;;;1.40;99.90;;;;;;5029838;28;20516;-64
2020/12/11 02:41:37;;;;;;;19.30;14.10;;;1.30;99.90;;;;;;5030805;28;20170;-64
2020/12/11 02:44:03;;;;;;;24.23;15.53;;;1.40;99.90;;;;;;5030719;28;20209;-64
2020/12/11 02:46:29;;;;;;;20.47;15.07;;;1.30;99.90;;;;;;5030611;28;20185;-64
2020/12/11 02:48:55;;;;;;;19.83;15.60;;;1.30;99.90;;;;;;5029929;28;20432;-64
2020/12/11 02:51:21;;;;;;;24.00;16.50;;;1.30;99.90;;;;;;5030755;28;20185;-64
2020/12/11 02:53:50;;;;;;;21.90;16.70;;;1.30;99.90;;;;;;5030215;28;20178;-64
2020/12/11 02:56:19;;;;;;;24.13;16.40;;;1.30;99.90;;;;;;5030830;28;20436;-64
2020/12/11 02:58:45;;;;;;;23.50;16.10;;;1.30;99.90;;;;;;5029181;28;20510;-64
2020/12/11 03:01:11;;;;;;;23.40;17.33;;;1.20;99.90;;;;;;5030465;28;20495;-64
2020/12/11 03:03:36;;;;;;;20.70;15.30;;;1.20;99.90;;;;;;5030563;28;20268;-64
2020/12/11 03:06:02;;;;;;;22.33;17.73;;;1.20;99.90;;;;;;5030298;28;20185;-64
2020/12/11 03:08:28;;;;;;;25.80;16.23;;;1.20;99.90;;;;;;5029535;28;20224;-64
2020/12/11 03:10:53;;;;;;;21.60;17.40;;;1.20;99.90;;;;;;5030355;28;20248;-64
2020/12/11 03:13:19;;;;;;;21.07;17.10;;;1.20;99.90;;;;;;5030316;28;20602;-64
2020/12/11 03:15:44;;;;;;;23.27;16.10;;;1.30;99.90;;;;;;5030429;28;20210;-63
2020/12/11 03:18:10;;;;;;;20.63;15.10;;;1.30;99.90;;;;;;5029600;28;20261;-64
2020/12/11 03:20:35;;;;;;;21.40;15.03;;;1.30;99.90;;;;;;5030139;28;20206;-64
2020/12/11 03:23:01;;;;;;;19.43;15.10;;;1.30;99.90;;;;;;5029964;28;20196;-64
2020/12/11 03:25:26;;;;;;;21.10;16.37;;;1.20;99.90;;;;;;5030388;28;20194;-64
2020/12/11 03:27:52;;;;;;;21.97;15.40;;;1.20;99.90;;;;;;5029092;28;20519;-64
2020/12/11 03:30:17;;;;;;;21.77;15.27;;;1.20;99.90;;;;;;5030093;28;20213;-64
2020/12/11 03:32:43;;;;;;;22.60;16.97;;;1.20;99.90;;;;;;5030421;28;20205;-64
2020/12/11 03:35:09;;;;;;;26.47;17.07;;;1.10;99.90;;;;;;5029655;28;20202;-64
2020/12/11 03:37:35;;;;;;;24.00;17.13;;;1.20;99.90;;;;;;5029749;28;20228;-63
2020/12/11 03:40:00;;;;;;;20.50;14.93;;;1.20;99.90;;;;;;5029545;28;20429;-64
2020/12/11 03:42:26;;;;;;;23.30;16.73;;;1.10;99.90;;;;;;5029575;28;20174;-64
2020/12/11 03:44:51;;;;;;;24.70;16.30;;;1.10;99.90;;;;;;5030240;28;20594;-64
2020/12/11 03:47:17;;;;;;;23.80;16.47;;;1.00;99.90;;;;;;5029451;28;20776;-64
2020/12/11 03:49:42;;;;;;;23.03;17.20;;;1.00;99.90;;;;;;5029317;28;20532;-64
2020/12/11 03:52:08;;;;;;;26.33;18.37;;;1.00;99.90;;;;;;5029987;28;20170;-64
2020/12/11 03:54:34;;;;;;;21.30;15.80;;;1.00;99.90;;;;;;5029451;28;20214;-64
2020/12/11 03:56:59;;;;;;;28.73;18.80;;;1.00;99.90;;;;;;5029948;28;20174;-63
2020/12/11 03:59:25;;;;;;;25.43;17.77;;;0.90;99.90;;;;;;5028855;28;20192;-64
2020/12/11 04:01:50;;;;;;;25.07;17.97;;;0.90;99.90;;;;;;5029828;28;20245;-64
2020/12/11 04:04:16;;;;;;;27.87;18.30;;;0.90;99.90;;;;;;5029706;28;20683;-64
2020/12/11 04:06:41;;;;;;;25.40;17.00;;;0.90;99.90;;;;;;5030169;28;20179;-64
2020/12/11 04:09:07;;;;;;;30.43;18.03;;;0.80;99.90;;;;;;5029242;28;20174;-63
2020/12/11 04:11:35;;;;;;;31.50;20.27;;;0.80;99.90;;;;;;5029616;28;20726;-63
2020/12/11 04:14:04;;;;;;;26.27;17.80;;;0.80;99.90;;;;;;5029282;28;20201;-64
2020/12/11 04:16:30;;;;;;;24.47;18.80;;;0.70;99.90;;;;;;5029572;28;20494;-63
2020/12/11 04:18:56;;;;;;;25.57;17.50;;;0.70;99.90;;;;;;5028696;28;20430;-64
2020/12/11 04:21:22;;;;;;;30.13;19.30;;;0.70;99.90;;;;;;5030877;28;20429;-64
2020/12/11 04:23:47;;;;;;;29.53;20.30;;;0.70;99.90;;;;;;5033227;28;20221;-64
2020/12/11 04:26:13;;;;;;;26.27;18.07;;;0.70;99.90;;;;;;5033423;28;20225;-64
2020/12/11 04:28:39;;;;;;;26.23;18.03;;;0.70;99.90;;;;;;5032280;28;20634;-64
2020/12/11 04:31:05;;;;;;;32.67;18.73;;;0.70;99.90;;;;;;5033566;28;20190;-63
2020/12/11 04:33:31;;;;;;;28.27;19.10;;;0.70;99.90;;;;;;5033160;28;20503;-64
2020/12/11 04:35:56;;;;;;;28.53;19.53;;;0.70;99.90;;;;;;5033250;28;20560;-64
2020/12/11 04:38:22;;;;;;;27.77;18.53;;;0.70;99.90;;;;;;5032598;28;20264;-64
2020/12/11 04:40:47;;;;;;;30.10;20.10;;;0.70;99.90;;;;;;5033261;28;20599;-64
2020/12/11 04:43:13;;;;;;;27.27;18.93;;;0.60;99.90;;;;;;5032745;28;20178;-63
2020/12/11 04:45:40;;;;;;;36.70;21.53;;;0.60;99.90;;;;;;5033317;28;20205;-64
2020/12/11 04:48:09;;;;;;;27.40;19.13;;;0.60;99.90;;;;;;5032161;28;20243;-64
2020/12/11 04:50:36;;;;;;;31.97;19.20;;;0.60;99.90;;;;;;5033043;28;20448;-63
2020/12/11 04:53:03;;;;;;;27.43;18.50;;;0.60;99.90;;;;;;5032533;28;20444;-64
2020/12/11 04:55:33;;;;;;;30.70;18.80;;;0.50;99.90;;;;;;5032781;28;21800;-64
2020/12/11 04:58:03;;;;;;;32.80;22.43;;;0.50;99.90;;;;;;5031989;28;20986;-66
2020/12/11 05:00:29;;;;;;;26.20;17.97;;;0.50;99.90;;;;;;5032441;28;20463;-66
2020/12/11 05:02:55;;;;;;;28.40;18.23;;;0.40;99.90;;;;;;5033162;28;20436;-66
2020/12/11 05:05:21;;;;;;;29.20;18.97;;;0.40;99.90;;;;;;5032576;28;20285;-66
2020/12/11 05:07:46;;;;;;;28.73;18.43;;;0.40;99.90;;;;;;5031870;28;20524;-67
2020/12/11 05:10:12;;;;;;;33.63;20.23;;;0.30;99.90;;;;;;5032390;28;20184;-67
2020/12/11 05:12:38;;;;;;;30.63;19.10;;;0.30;99.90;;;;;;5032482;28;20189;-66
2020/12/11 05:15:13;;;;;;;37.00;22.30;;;0.30;99.90;;;;;;5031991;28;20472;-66
2020/12/11 05:17:40;;;;;;;28.40;17.90;;;0.30;99.90;;;;;;5031619;28;20218;-67
2020/12/11 05:20:08;;;;;;;30.50;19.80;;;0.30;99.90;;;;;;5032734;28;20436;-66
2020/12/11 05:22:39;;;;;;;34.27;20.50;;;0.20;99.90;;;;;;5032537;28;20456;-66
2020/12/11 05:25:15;;;;;;;27.13;17.70;;;0.20;99.90;;;;;;5032097;28;20543;-67
2020/12/11 05:27:43;;;;;;;33.50;20.00;;;0.20;99.90;;;;;;5031161;28;20760;-66
2020/12/11 05:30:14;;;;;;;26.80;18.87;;;0.20;99.90;;;;;;5031989;28;20806;-66
2020/12/11 05:32:51;;;;;;;34.47;19.27;;;0.10;99.90;;;;;;5032362;28;20946;-66
2020/12/11 05:35:22;;;;;;;35.07;21.50;;;0.10;99.90;;;;;;5031787;28;20514;-66
2020/12/11 05:38:05;;;;;;;30.70;18.73;;;0.10;99.90;;;;;;5030890;28;20466;-67
2020/12/11 05:40:39;;;;;;;34.63;21.60;;;0.10;99.90;;;;;;5019141;28;20424;-66
2020/12/11 05:43:21;;;;;;;31.90;19.10;;;0.10;99.90;;;;;;5031701;28;20421;-66
2020/12/11 05:45:58;;;;;;;24.80;17.23;;;0.10;99.90;;;;;;5032088;28;20444;-66
2020/12/11 05:48:36;;;;;;;34.63;20.67;;;0.10;99.90;;;;;;5030796;28;20432;-66
2020/12/11 05:51:13;;;;;;;30.83;19.40;;;0.00;99.90;;;;;;5031844;28;20470;-66
2020/12/11 05:53:38;;;;;;;30.07;19.00;;;0.00;99.90;;;;;;5027873;28;20466;-65
2020/12/11 05:56:05;;;;;;;31.20;20.43;;;0.00;99.90;;;;;;5031267;28;20463;-66
2020/12/11 05:58:33;;;;;;;29.33;18.57;;;0.00;99.90;;;;;;5031062;28;20167;-66
2020/12/11 06:00:59;;;;;;;28.47;18.37;;;0.00;99.90;;;;;;5031562;28;20437;-66
2020/12/11 06:03:25;;;;;;;26.63;17.73;;;0.00;99.90;;;;;;5031837;28;20453;-66
2020/12/11 06:05:54;;;;;;;33.77;21.37;;;0.00;99.90;;;;;;5031445;28;20487;-66
2020/12/11 06:08:20;;;;;;;27.50;18.40;;;0.00;99.90;;;;;;5030776;28;20451;-66
2020/12/11 06:10:49;;;;;;;36.57;20.70;;;-0.10;99.90;;;;;;5031354;28;20433;-66
2020/12/11 06:13:35;;;;;;;30.10;17.30;;;-0.10;99.90;;;;;;5031206;28;20615;-66
2020/12/11 06:16:02;;;;;;;33.93;19.53;;;-0.10;99.90;;;;;;5030916;28;20465;-66
2020/12/11 06:18:30;;;;;;;30.17;19.50;;;-0.10;99.90;;;;;;5030236;28;20763;-66
2020/12/11 06:20:56;;;;;;;32.83;18.37;;;-0.10;99.90;;;;;;5031525;28;20436;-65
2020/12/11 06:23:23;;;;;;;31.07;18.87;;;-0.10;99.90;;;;;;5030776;28;20428;-66
2020/12/11 06:25:55;;;;;;;29.60;19.13;;;-0.10;99.90;;;;;;5031207;28;20956;-66
2020/12/11 06:28:50;;;;;;;29.53;18.47;;;-0.10;99.90;;;;;;5030477;28;20436;-66
2020/12/11 06:31:20;;;;;;;31.83;19.70;;;-0.10;99.90;;;;;;5026328;28;20507;-66
2020/12/11 06:33:51;;;;;;;27.60;16.60;;;-0.10;99.90;;;;;;5030249;28;20425;-66
2020/12/11 06:36:17;;;;;;;30.67;18.97;;;-0.10;99.90;;;;;;5031103;28;20464;-66
2020/12/11 06:38:43;;;;;;;29.60;18.30;;;-0.10;99.90;;;;;;5030226;28;20427;-66
2020/12/11 06:41:09;;;;;;;30.17;17.00;;;-0.10;99.90;;;;;;5030718;28;20421;-66
2020/12/11 06:43:43;;;;;;;29.30;19.23;;;-0.10;99.90;;;;;;5030589;28;20186;-66
2020/12/11 06:46:19;;;;;;;29.83;19.57;;;-0.10;99.90;;;;;;5030697;28;20429;-66
2020/12/11 06:49:03;;;;;;;26.17;17.40;;;-0.10;99.90;;;;;;5030091;28;20573;-66
2020/12/11 06:51:29;;;;;;;28.53;19.13;;;-0.10;99.90;;;;;;5030430;28;20956;-66
2020/12/11 06:53:55;;;;;;;27.80;19.00;;;0.00;99.90;;;;;;5030431;28;20444;-65
2020/12/11 06:56:49;;;;;;;30.10;18.57;;;0.00;99.90;;;;;;5029005;28;20269;-66
2020/12/11 06:59:22;;;;;;;29.13;17.63;;;0.00;99.90;;;;;;5028982;28;20193;-66
2020/12/11 07:01:49;;;;;;;27.40;16.90;;;0.10;99.90;;;;;;5030772;28;20433;-66
2020/12/11 07:04:15;;;;;;;26.17;16.80;;;0.10;99.90;;;;;;5030817;28;20461;-67
2020/12/11 07:06:49;;;;;;;29.27;16.60;;;0.10;99.90;;;;;;5030661;28;20429;-67
2020/12/11 07:09:15;;;;;;;24.30;16.70;;;0.10;99.90;;;;;;5020011;28;20185;-71
2020/12/11 07:11:42;;;;;;;26.60;17.93;;;0.10;99.90;;;;;;5031294;28;20520;-67
2020/12/11 07:14:08;;;;;;;25.67;16.93;;;0.10;99.90;;;;;;5046481;28;20452;-68
2020/12/11 07:16:44;;;;;;;23.80;16.27;;;0.10;99.90;;;;;;5038721;28;20503;-68
2020/12/11 07:19:10;;;;;;;31.10;17.17;;;0.10;99.90;;;;;;5029608;28;20647;-68
2020/12/11 07:21:38;;;;;;;25.37;16.80;;;0.10;99.90;;;;;;5029684;28;20441;-69
2020/12/11 07:24:05;;;;;;;30.90;18.97;;;0.10;99.90;;;;;;4958449;28;20478;-65
2020/12/11 07:26:31;;;;;;;33.30;19.03;;;0.10;99.90;;;;;;4971162;28;20526;-68
2020/12/11 07:29:13;;;;;;;25.80;18.13;;;0.10;99.90;;;;;;4987882;28;20437;-67
2020/12/11 07:31:40;;;;;;;30.17;19.70;;;0.10;99.90;;;;;;4989170;28;20431;-68
2020/12/11 07:34:27;;;;;;;31.07;17.30;;;0.20;99.90;;;;;;4986544;28;20468;-68
2020/12/11 07:36:57;;;;;;;27.80;16.97;;;0.20;99.90;;;;;;4991173;28;20489;-66
2020/12/11 07:39:25;;;;;;;25.10;16.80;;;0.30;99.90;;;;;;4989176;28;20796;-68
2020/12/11 07:41:51;;;;;;;27.43;17.03;;;0.30;99.90;;;;;;5005925;28;20446;-69
2020/12/11 07:44:43;;;;;;;22.00;17.00;;;0.30;99.90;;;;;;4992540;28;20453;-68
2020/12/11 07:47:11;;;;;;;24.00;16.20;;;0.30;99.90;;;;;;4994401;28;20970;-66
2020/12/11 07:49:42;;;;;;;27.27;17.00;;;0.30;99.90;;;;;;4992211;28;20526;-66
2020/12/11 07:52:09;;;;;;;29.37;19.30;;;0.30;99.90;;;;;;4994424;28;20431;-68
2020/12/11 07:54:40;;;;;;;34.07;18.87;;;0.30;99.90;;;;;;4987146;28;20466;-67
2020/12/11 07:57:19;;;;;;;25.70;15.47;;;0.40;99.90;;;;;;4992433;28;20976;-68
2020/12/11 08:00:07;;;;;;;31.37;19.00;;;0.40;99.90;;;;;;4993507;28;20433;-65
2020/12/11 08:02:34;;;;;;;27.97;16.50;;;0.40;99.90;;;;;;4990175;28;20520;-62
2020/12/11 08:05:06;;;;;;;23.93;15.80;;;0.40;99.90;;;;;;4992706;28;20914;-66
2020/12/11 08:07:32;;;;;;;25.80;16.20;;;0.50;99.90;;;;;;4994286;28;20807;-66
2020/12/11 08:10:12;;;;;;;29.80;17.83;;;0.60;99.90;;;;;;4986298;28;20438;-65
2020/12/11 08:12:41;;;;;;;22.27;15.30;;;0.60;99.90;;;;;;4989659;28;22003;-63
2020/12/11 08:15:08;;;;;;;22.70;16.17;;;0.70;99.90;;;;;;4993071;28;20850;-63
2020/12/11 08:17:34;;;;;;;23.83;15.73;;;0.80;99.90;;;;;;4993986;28;21054;-65
2020/12/11 08:20:04;;;;;;;23.00;15.70;;;0.90;99.90;;;;;;4993788;28;20501;-65
2020/12/11 08:22:33;;;;;;;22.43;15.10;;;1.00;99.90;;;;;;4992844;28;20962;-63
2020/12/11 08:25:17;;;;;;;22.00;14.13;;;1.10;99.90;;;;;;4992068;28;20829;-65
2020/12/11 08:27:43;;;;;;;23.10;16.07;;;1.20;99.90;;;;;;4993006;28;20434;-66
2020/12/11 08:30:17;;;;;;;18.43;12.93;;;1.30;99.90;;;;;;4978720;28;20442;-66
2020/12/11 08:32:44;;;;;;;23.57;16.37;;;1.60;99.90;;;;;;4990192;28;20478;-64
2020/12/11 08:35:21;;;;;;;19.53;13.93;;;2.50;99.90;;;;;;4993272;28;20553;-65
2020/12/11 08:37:54;;;;;;;18.30;14.30;;;4.20;99.90;;;;;;4993139;28;20962;-65
2020/12/11 08:40:20;;;;;;;22.67;15.80;;;5.30;99.90;;;;;;4992368;28;20431;-65
2020/12/11 08:43:07;;;;;;;16.63;12.37;;;4.70;99.90;;;;;;4989978;28;20442;-65
2020/12/11 08:45:37;;;;;;;20.90;13.77;;;4.60;99.90;;;;;;4993096;28;20990;-65
2020/12/11 08:48:14;;;;;;;23.43;14.63;;;4.10;99.90;;;;;;4992269;28;20532;-65
2020/12/11 08:50:45;;;;;;;18.20;14.90;;;3.40;99.90;;;;;;4993021;28;20438;-65
2020/12/11 08:53:13;;;;;;;20.70;13.77;;;3.00;99.90;;;;;;4990184;28;20917;-65
2020/12/11 08:55:38;;;;;;;21.57;15.43;;;2.60;99.90;;;;;;4992963;28;20553;-65
2020/12/11 08:58:04;;;;;;;18.87;12.90;;;2.40;99.90;;;;;;4992417;28;20994;-65
2020/12/11 09:00:30;;;;;;;24.43;15.33;;;2.30;99.90;;;;;;4992959;28;20661;-65
2020/12/11 09:02:55;;;;;;;22.87;14.90;;;2.40;99.90;;;;;;4989954;28;20290;-65
2020/12/11 09:05:24;;;;;;;18.43;13.33;;;2.40;99.90;;;;;;4992811;28;20203;-65
2020/12/11 09:07:52;;;;;;;21.73;14.63;;;2.60;99.90;;;;;;4991743;28;20214;-65
2020/12/11 09:10:18;;;;;;;18.10;13.10;;;2.70;99.90;;;;;;4992608;28;20441;-65
2020/12/11 09:12:46;;;;;;;19.80;14.23;;;2.90;99.90;;;;;;4989528;28;20442;-65
2020/12/11 09:15:12;;;;;;;19.57;14.40;;;2.90;99.90;;;;;;4992435;28;21141;-65
2020/12/11 09:17:38;;;;;;;22.07;15.27;;;3.00;99.90;;;;;;4992252;28;20813;-65
2020/12/11 09:20:05;;;;;;;19.60;14.63;;;3.10;99.90;;;;;;4992463;28;20427;-65
2020/12/11 09:22:32;;;;;;;16.63;12.20;;;3.30;99.90;;;;;;4990993;28;20171;-65
2020/12/11 09:24:58;;;;;;;16.90;12.87;;;3.20;99.90;;;;;;4991115;28;21005;-65
2020/12/11 09:27:23;;;;;;;15.50;11.20;;;3.10;99.90;;;;;;4992948;28;20517;-65
2020/12/11 09:29:51;;;;;;;17.70;11.90;;;3.10;99.90;;;;;;4991736;28;20436;-65
2020/12/11 09:32:36;;;;;;;17.13;10.67;;;3.00;99.90;;;;;;4992959;28;20187;-67
2020/12/11 09:35:02;;;;;;;16.60;11.70;;;2.70;99.90;;;;;;4991120;28;20887;-65
2020/12/11 09:37:27;;;;;;;15.13;11.37;;;2.60;99.90;;;;;;4992599;28;20518;-65
2020/12/11 09:39:53;;;;;;;18.20;13.40;;;2.70;99.90;;;;;;4987547;28;20238;-65
2020/12/11 09:42:41;;;;;;;16.87;11.80;;;2.90;99.90;;;;;;4991448;28;20183;-65
2020/12/11 09:45:16;;;;;;;14.80;10.93;;;3.40;99.90;;;;;;4990465;28;20249;-65
2020/12/11 09:51:00;;;;;;;17.90;12.50;;;3.40;99.90;;;;;;4992490;28;20438;-65
2020/12/11 09:55:22;;;;;;;16.27;11.60;;;3.20;99.90;;;;;;4992008;28;20501;-65
2020/12/11 09:57:47;;;;;;;13.40;10.43;;;3.10;99.90;;;;;;4991014;28;20180;-65
2020/12/11 10:00:13;;;;;;;15.93;11.90;;;3.10;99.90;;;;;;4991571;28;20188;-65
2020/12/11 10:02:59;;;;;;;16.40;13.13;;;3.00;99.90;;;;;;4991795;28;20578;-65
2020/12/11 10:05:24;;;;;;;16.77;12.00;;;3.00;99.90;;;;;;4991795;28;20450;-65
2020/12/11 10:07:50;;;;;;;14.00;11.63;;;2.90;99.90;;;;;;4991081;28;20802;-65
2020/12/11 10:10:17;;;;;;;19.00;12.73;;;3.00;99.90;;;;;;4980948;28;20219;-65
2020/12/11 10:12:43;;;;;;;15.50;11.67;;;3.10;99.90;;;;;;4992228;28;20179;-65
2020/12/11 10:15:10;;;;;;;17.83;12.37;;;3.40;99.90;;;;;;4991661;28;21002;-65
2020/12/11 10:17:36;;;;;;;15.40;11.17;;;3.40;99.90;;;;;;4991498;28;20175;-65
2020/12/11 10:20:02;;;;;;;16.37;11.40;;;3.40;99.90;;;;;;4990883;28;20433;-65
2020/12/11 10:22:28;;;;;;;15.00;11.70;;;3.40;99.90;;;;;;4991857;28;20180;-65
2020/12/11 10:24:53;;;;;;;16.20;11.93;;;3.50;99.90;;;;;;4991444;28;20454;-65
2020/12/11 10:27:19;;;;;;;16.37;11.97;;;3.60;99.90;;;;;;4991332;28;20175;-65
2020/12/11 10:29:45;;;;;;;17.23;12.47;;;3.50;99.90;;;;;;4990729;28;20183;-65
2020/12/11 10:32:10;;;;;;;16.67;11.97;;;3.40;99.90;;;;;;4991313;28;20234;-67
2020/12/11 10:34:36;;;;;;;15.07;12.10;;;3.40;99.90;;;;;;4991363;28;20286;-65
2020/12/11 10:37:07;;;;;;;15.60;11.00;;;3.30;99.90;;;;;;4991419;28;20186;-65
2020/12/11 10:39:33;;;;;;;16.07;12.03;;;3.20;99.90;;;;;;4990694;28;20179;-65
2020/12/11 10:42:03;;;;;;;15.60;11.07;;;3.40;99.90;;;;;;4991650;28;20477;-65
2020/12/11 10:44:29;;;;;;;16.90;13.70;;;3.50;99.90;;;;;;4991296;28;20461;-65
2020/12/11 10:46:55;;;;;;;17.93;12.03;;;3.60;99.90;;;;;;4991591;28;20422;-65
2020/12/11 10:49:21;;;;;;;17.57;13.33;;;3.60;99.90;;;;;;4990194;28;20180;-65
2020/12/11 10:51:48;;;;;;;15.10;11.27;;;3.50;99.90;;;;;;4991423;28;20180;-65
2020/12/11 10:54:14;;;;;;;15.97;11.80;;;3.50;99.90;;;;;;4990805;28;20458;-65
2020/12/11 10:56:41;;;;;;;14.33;10.83;;;3.60;99.90;;;;;;4991198;28;20517;-66
2020/12/11 10:59:07;;;;;;;16.17;12.10;;;3.70;99.90;;;;;;4989711;28;20521;-66
2020/12/11 11:01:32;;;;;;;15.00;12.20;;;3.90;99.90;;;;;;4991149;28;20458;-65
2020/12/11 11:03:58;;;;;;;12.70;9.77;;;4.30;99.90;;;;;;4990708;28;20563;-66
2020/12/11 11:06:42;;;;;;;15.23;10.67;;;4.80;99.90;;;;;;4989822;28;20221;-65
2020/12/11 11:09:14;;;;;;;13.17;10.60;;;5.50;99.90;;;;;;4990181;28;20653;-65
2020/12/11 11:11:44;;;;;;;13.57;11.17;;;6.00;99.90;;;;;;4990322;28;20438;-65
2020/12/11 11:25:00;;;;;;;17.63;11.53;;;4.10;99.90;;;;;;5014970;28;20519;-66
2020/12/11 11:27:36;;;;;;;13.53;10.80;;;4.10;99.90;;;;;;4984142;28;20505;-66
2020/12/11 11:30:03;;;;;;;15.20;12.13;;;4.20;99.90;;;;;;4987936;28;20430;-65
2020/12/11 11:32:28;;;;;;;18.93;13.20;;;4.00;99.90;;;;;;4989431;28;20427;-66
2020/12/11 11:34:54;;;;;;;15.50;11.17;;;3.90;99.90;;;;;;4985980;28;20577;-66
2020/12/11 11:37:21;;;;;;;12.90;10.47;;;4.00;99.90;;;;;;4989603;28;20175;-65
2020/12/11 11:39:48;;;;;;;14.90;11.33;;;3.90;99.90;;;;;;4989603;28;20180;-66
2020/12/11 11:42:13;;;;;;;16.20;12.60;;;3.90;99.90;;;;;;4990538;28;20438;-67
2020/12/11 11:47:07;;;;;;;15.97;10.97;;;4.10;99.90;;;;;;4988732;28;20186;-65
2020/12/11 11:49:50;;;;;;;11.87;10.47;;;4.30;99.90;;;;;;4989613;28;20322;-66
2020/12/11 11:52:24;;;;;;;13.47;11.07;;;4.60;99.90;;;;;;4985794;28;20446;-66
2020/12/11 11:54:49;;;;;;;14.93;11.60;;;4.80;99.90;;;;;;4990125;28;20521;-67
2020/12/11 11:57:15;;;;;;;13.17;11.40;;;5.00;99.90;;;;;;4988104;28;20550;-67
2020/12/11 11:59:42;;;;;;;13.20;11.37;;;5.00;99.90;;;;;;4989191;28;20629;-68
2020/12/11 12:02:07;;;;;;;14.10;12.23;;;5.20;99.90;;;;;;4989770;28;20664;-67
2020/12/11 12:04:33;;;;;;;15.70;12.77;;;5.30;99.90;;;;;;4990427;28;20454;-66
2020/12/11 12:06:58;;;;;;;13.73;11.47;;;5.70;99.90;;;;;;4990077;28;20180;-67
2020/12/11 12:09:24;;;;;;;13.70;11.53;;;6.10;99.90;;;;;;4989739;28;20182;-67
2020/12/11 12:11:49;;;;;;;14.80;12.50;;;5.60;99.90;;;;;;4990238;28;20657;-69
2020/12/11 12:14:15;;;;;;;15.53;12.87;;;5.30;99.90;;;;;;4989992;28;20214;-67
2020/12/11 12:16:42;;;;;;;16.40;12.73;;;5.00;99.90;;;;;;4982900;28;20184;-67
2020/12/11 12:19:13;;;;;;;17.30;13.53;;;4.80;99.90;;;;;;4984339;28;20172;-67
2020/12/11 12:27:26;;;;;;;16.53;13.10;;;4.30;99.90;;;;;;4990242;28;20445;-67
2020/12/11 12:29:52;;;;;;;17.17;12.10;;;4.40;99.90;;;;;;4989915;28;20437;-67
2020/12/11 12:32:20;;;;;;;16.37;12.63;;;4.30;99.90;;;;;;4990269;28;20430;-67
2020/12/11 12:34:58;;;;;;;16.80;12.07;;;4.40;99.90;;;;;;4989868;28;20466;-67
2020/12/11 12:43:16;;;;;;;15.27;13.03;;;4.70;99.90;;;;;;4992292;28;20562;-66
2020/12/11 12:45:41;;;;;;;19.73;15.00;;;4.60;99.90;;;;;;4993846;28;20490;-67
2020/12/11 12:48:07;;;;;;;17.83;12.30;;;4.50;99.90;;;;;;4993097;28;20462;-67
2020/12/11 12:50:32;;;;;;;17.20;13.00;;;4.30;99.90;;;;;;4993899;28;20180;-67
2020/12/11 12:52:58;;;;;;;17.30;12.80;;;4.20;99.90;;;;;;4993188;28;20521;-67
2020/12/11 12:55:39;;;;;;;18.53;13.63;;;4.10;99.90;;;;;;4993213;28;20219;-67
2020/12/11 12:58:05;;;;;;;16.20;12.80;;;4.10;99.90;;;;;;4993326;28;20716;-67
2020/12/11 13:00:36;;;;;;;15.17;11.70;;;4.10;99.90;;;;;;4982017;28;20423;-67
2020/12/11 13:05:31;;;;;;;18.97;14.20;;;4.00;99.90;;;;;;4993473;28;20454;-67
2020/12/11 13:07:56;;;;;;;17.30;12.30;;;3.90;99.90;;;;;;4993215;28;20454;-67
2020/12/11 13:10:22;;;;;;;18.13;12.70;;;3.80;99.90;;;;;;4993222;28;20190;-67
2020/12/11 13:12:48;;;;;;;19.87;14.00;;;3.70;99.90;;;;;;4993389;28;20215;-67